TAF KMHR
AMD KMHR 090627Z 0906/1006 16004KT 1 1/2SM BR OVC015 FM090900 14004KT 3SM -RA BR OVC015 FM091600 31003KT 3SM BR OVC010 TEMPO 0916/0918 2SM BR FM092100 32009KT P6SM BKN025 FM100000 27005KT P6SM FEW250=
METAR KMHR
WC KMHR
WS KMHR
WV KMHR